sensor_id;sensor_type;location;lat;lon;timestamp;pressure;altitude;pressure_sealevel;temperature;humidity
42691;BME280;28306;55.744;37.578;2023-03-20T00:02:06;100336.22;;;24.05;18.25
42691;BME280;28306;55.744;37.578;2023-03-20T00:04:32;100340.56;;;24.06;18.17
42691;BME280;28306;55.744;37.578;2023-03-20T00:06:58;100335.13;;;24.06;18.06
42691;BME280;28306;55.744;37.578;2023-03-20T00:09:23;100339.50;;;24.07;18.05
42691;BME280;28306;55.744;37.578;2023-03-20T00:11:50;100342.00;;;24.08;17.93
42691;BME280;28306;55.744;37.578;2023-03-20T00:14:19;100339.50;;;24.07;18.05
42691;BME280;28306;55.744;37.578;2023-03-20T00:16:46;100337.59;;;24.07;18.08
42691;BME280;28306;55.744;37.578;2023-03-20T00:21:44;100335.13;;;24.06;18.05
42691;BME280;28306;55.744;37.578;2023-03-20T00:24:11;100336.78;;;24.07;18.24
42691;BME280;28306;55.744;37.578;2023-03-20T00:26:37;100338.44;;;24.08;18.05
42691;BME280;28306;55.744;37.578;2023-03-20T00:29:04;100334.06;;;24.07;18.17
42691;BME280;28306;55.744;37.578;2023-03-20T00:31:31;100332.16;;;24.07;17.95
42691;BME280;28306;55.744;37.578;2023-03-20T00:33:59;100337.59;;;24.07;18.02
42691;BME280;28306;55.744;37.578;2023-03-20T00:36:28;100326.97;;;24.06;17.95
42691;BME280;28306;55.744;37.578;2023-03-20T00:38:53;100325.09;;;24.06;18.08
42691;BME280;28306;55.744;37.578;2023-03-20T00:43:50;100331.34;;;24.07;18.26
42691;BME280;28306;55.744;37.578;2023-03-20T00:46:16;100331.59;;;24.05;18.17
42691;BME280;28306;55.744;37.578;2023-03-20T00:48:42;100326.97;;;24.06;18.05
42691;BME280;28306;55.744;37.578;2023-03-20T00:51:08;100324.25;;;24.06;18.00
42691;BME280;28306;55.744;37.578;2023-03-20T00:53:34;100326.16;;;24.05;18.06
42691;BME280;28306;55.744;37.578;2023-03-20T00:55:59;100315.84;;;24.07;18.02
42691;BME280;28306;55.744;37.578;2023-03-20T00:58:25;100324.88;;;24.08;18.11
42691;BME280;28306;55.744;37.578;2023-03-20T01:00:50;100312.91;;;24.09;17.89
42691;BME280;28306;55.744;37.578;2023-03-20T01:03:20;100324.63;;;24.09;18.02
42691;BME280;28306;55.744;37.578;2023-03-20T01:05:47;100311.84;;;24.10;17.98
42691;BME280;28306;55.744;37.578;2023-03-20T01:08:19;100314.31;;;24.11;17.91
42691;BME280;28306;55.744;37.578;2023-03-20T01:10:52;100316.22;;;24.11;17.95
42691;BME280;28306;55.744;37.578;2023-03-20T01:13:25;100317.03;;;24.11;17.92
42691;BME280;28306;55.744;37.578;2023-03-20T01:15:52;100316.22;;;24.11;18.05
42691;BME280;28306;55.744;37.578;2023-03-20T01:18:18;100319.19;;;24.09;17.94
42691;BME280;28306;55.744;37.578;2023-03-20T01:20:44;100311.84;;;24.10;17.90
42691;BME280;28306;55.744;37.578;2023-03-20T01:23:10;100311.84;;;24.10;17.98
42691;BME280;28306;55.744;37.578;2023-03-20T01:25:37;100316.47;;;24.09;17.92
42691;BME280;28306;55.744;37.578;2023-03-20T01:28:03;100310.19;;;24.09;18.19
42691;BME280;28306;55.744;37.578;2023-03-20T01:30:36;100308.31;;;24.09;18.23
42691;BME280;28306;55.744;37.578;2023-03-20T01:33:05;100303.69;;;24.10;18.09
42691;BME280;28306;55.744;37.578;2023-03-20T01:35:30;100296.59;;;24.09;17.93
42691;BME280;28306;55.744;37.578;2023-03-20T01:38:02;100302.03;;;24.09;18.02
42691;BME280;28306;55.744;37.578;2023-03-20T01:40:30;100295.78;;;24.08;18.08
42691;BME280;28306;55.744;37.578;2023-03-20T01:42:57;100296.59;;;24.09;18.21
42691;BME280;28306;55.744;37.578;2023-03-20T01:45:24;100295.78;;;24.08;17.93
42691;BME280;28306;55.744;37.578;2023-03-20T01:47:51;100292.00;;;24.09;18.06
42691;BME280;28306;55.744;37.578;2023-03-20T01:52:45;100281.94;;;24.10;18.11
42691;BME280;28306;55.744;37.578;2023-03-20T01:55:12;100285.47;;;24.10;17.97
42691;BME280;28306;55.744;37.578;2023-03-20T01:57:38;100288.19;;;24.10;17.91
42691;BME280;28306;55.744;37.578;2023-03-20T02:00:05;100289.03;;;24.11;17.96
42691;BME280;28306;55.744;37.578;2023-03-20T02:02:42;100280.63;;;24.13;18.14
42691;BME280;28306;55.744;37.578;2023-03-20T02:05:10;100275.44;;;24.11;17.98
42691;BME280;28306;55.744;37.578;2023-03-20T02:07:39;100277.31;;;24.10;17.92
42691;BME280;28306;55.744;37.578;2023-03-20T02:10:09;100273.53;;;24.11;17.92
42691;BME280;28306;55.744;37.578;2023-03-20T02:12:49;100279.22;;;24.10;18.06
42691;BME280;28306;55.744;37.578;2023-03-20T02:15:25;100272.72;;;24.11;17.97
42691;BME280;28306;55.744;37.578;2023-03-20T02:18:02;100270.25;;;24.09;18.04
42691;BME280;28306;55.744;37.578;2023-03-20T02:40:41;100266.44;;;24.10;17.91
42691;BME280;28306;55.744;37.578;2023-03-20T02:43:17;100255.56;;;24.10;17.99
42691;BME280;28306;55.744;37.578;2023-03-20T02:50:49;100252.03;;;24.10;17.96
42691;BME280;28306;55.744;37.578;2023-03-20T02:55:55;100252.84;;;24.10;17.97
42691;BME280;28306;55.744;37.578;2023-03-20T02:58:26;100249.06;;;24.11;17.83
42691;BME280;28306;55.744;37.578;2023-03-20T03:01:01;100245.53;;;24.11;17.88
42691;BME280;28306;55.744;37.578;2023-03-20T03:05:59;100249.31;;;24.10;17.97
42691;BME280;28306;55.744;37.578;2023-03-20T03:08:27;100243.88;;;24.10;17.91
42691;BME280;28306;55.744;37.578;2023-03-20T03:11:05;100246.59;;;24.10;17.99
42691;BME280;28306;55.744;37.578;2023-03-20T03:13:32;100243.88;;;24.10;17.82
42691;BME280;28306;55.744;37.578;2023-03-20T03:16:15;100243.06;;;24.09;17.85
42691;BME280;28306;55.744;37.578;2023-03-20T03:18:43;100231.34;;;24.09;17.98
42691;BME280;28306;55.744;37.578;2023-03-20T03:21:11;100232.44;;;24.08;17.95
42691;BME280;28306;55.744;37.578;2023-03-20T03:23:42;100225.91;;;24.09;17.96
42691;BME280;28306;55.744;37.578;2023-03-20T03:26:11;100230.53;;;24.08;17.96
42691;BME280;28306;55.744;37.578;2023-03-20T03:28:40;100230.53;;;24.08;17.85
42691;BME280;28306;55.744;37.578;2023-03-20T03:31:08;100225.09;;;24.08;17.88
42691;BME280;28306;55.744;37.578;2023-03-20T03:33:37;100229.47;;;24.09;17.82
42691;BME280;28306;55.744;37.578;2023-03-20T03:38:37;100227.31;;;24.11;17.79
42691;BME280;28306;55.744;37.578;2023-03-20T03:41:31;100222.69;;;24.12;17.79
42691;BME280;28306;55.744;37.578;2023-03-20T03:49:10;100213.47;;;24.13;17.90
42691;BME280;28306;55.744;37.578;2023-03-20T03:51:38;100213.47;;;24.13;17.84
42691;BME280;28306;55.744;37.578;2023-03-20T03:54:14;100217.03;;;24.14;17.69
42691;BME280;28306;55.744;37.578;2023-03-20T03:56:42;100212.44;;;24.14;17.76
42691;BME280;28306;55.744;37.578;2023-03-20T03:59:10;100202.38;;;24.15;17.84
42691;BME280;28306;55.744;37.578;2023-03-20T04:01:37;100205.91;;;24.15;17.93
42691;BME280;28306;55.744;37.578;2023-03-20T04:04:08;100209.47;;;24.16;17.96
42691;BME280;28306;55.744;37.578;2023-03-20T04:06:35;100210.28;;;24.16;17.82
42691;BME280;28306;55.744;37.578;2023-03-20T04:09:01;100209.47;;;24.16;17.91
42691;BME280;28306;55.744;37.578;2023-03-20T04:11:26;100214.66;;;24.17;18.08
42691;BME280;28306;55.744;37.578;2023-03-20T04:13:55;100212.75;;;24.18;17.97
42691;BME280;28306;55.744;37.578;2023-03-20T04:16:21;100207.31;;;24.18;17.76
42691;BME280;28306;55.744;37.578;2023-03-20T04:18:47;100208.13;;;24.18;17.73
42691;BME280;28306;55.744;37.578;2023-03-20T04:21:14;100204.34;;;24.19;17.89
42691;BME280;28306;55.744;37.578;2023-03-20T04:23:41;100211.44;;;24.20;17.94
42691;BME280;28306;55.744;37.578;2023-03-20T04:26:07;100203.84;;;24.22;17.75
42691;BME280;28306;55.744;37.578;2023-03-20T04:28:33;100206.56;;;24.22;17.87
42691;BME280;28306;55.744;37.578;2023-03-20T04:31:17;100200.06;;;24.23;17.89
42691;BME280;28306;55.744;37.578;2023-03-20T04:34:06;100202.53;;;24.25;17.75
42691;BME280;28306;55.744;37.578;2023-03-20T04:36:35;100202.28;;;24.26;18.02
42691;BME280;28306;55.744;37.578;2023-03-20T04:39:02;100196.59;;;24.28;17.79
42691;BME280;28306;55.744;37.578;2023-03-20T04:41:28;100198.00;;;24.31;17.84
42691;BME280;28306;55.744;37.578;2023-03-20T04:43:55;100195.88;;;24.33;18.00
42691;BME280;28306;55.744;37.578;2023-03-20T04:46:22;100197.50;;;24.34;17.86
42691;BME280;28306;55.744;37.578;2023-03-20T04:48:47;100198.34;;;24.34;17.80
42691;BME280;28306;55.744;37.578;2023-03-20T04:51:14;100197.50;;;24.34;17.62
42691;BME280;28306;55.744;37.578;2023-03-20T04:53:48;100197.25;;;24.35;17.89
42691;BME280;28306;55.744;37.578;2023-03-20T04:56:14;100193.47;;;24.36;17.72
42691;BME280;28306;55.744;37.578;2023-03-20T04:58:40;100202.44;;;24.37;17.77
42691;BME280;28306;55.744;37.578;2023-03-20T05:01:06;100203.84;;;24.39;17.78
42691;BME280;28306;55.744;37.578;2023-03-20T05:03:31;100204.66;;;24.40;17.74
42691;BME280;28306;55.744;37.578;2023-03-20T05:05:58;100197.31;;;24.40;17.78
42691;BME280;28306;55.744;37.578;2023-03-20T05:08:24;100194.59;;;24.40;17.64
42691;BME280;28306;55.744;37.578;2023-03-20T05:10:54;100200.03;;;24.40;17.51
42691;BME280;28306;55.744;37.578;2023-03-20T05:13:51;100205.22;;;24.42;17.50
42691;BME280;28306;55.744;37.578;2023-03-20T05:16:35;100199.78;;;24.42;17.64
42691;BME280;28306;55.744;37.578;2023-03-20T05:19:30;100204.16;;;24.43;17.76
42691;BME280;28306;55.744;37.578;2023-03-20T05:21:55;100198.72;;;24.43;17.56
42691;BME280;28306;55.744;37.578;2023-03-20T05:24:47;100200.38;;;24.44;17.49
42691;BME280;28306;55.744;37.578;2023-03-20T05:27:31;100198.22;;;24.46;17.54
42691;BME280;28306;55.744;37.578;2023-03-20T05:30:05;100194.44;;;24.47;17.64
42691;BME280;28306;55.744;37.578;2023-03-20T05:32:50;100208.63;;;24.49;17.67
42691;BME280;28306;55.744;37.578;2023-03-20T05:35:25;100203.16;;;24.49;17.52
42691;BME280;28306;55.744;37.578;2023-03-20T05:38:09;100194.75;;;24.51;17.67
42691;BME280;28306;55.744;37.578;2023-03-20T05:40:59;100202.66;;;24.52;17.58
42691;BME280;28306;55.744;37.578;2023-03-20T05:43:50;100201.63;;;24.53;17.36
42691;BME280;28306;55.744;37.578;2023-03-20T05:46:25;100202.19;;;24.55;17.58
42691;BME280;28306;55.744;37.578;2023-03-20T05:49:09;100204.91;;;24.55;17.38
42691;BME280;28306;55.744;37.578;2023-03-20T05:52:01;100199.25;;;24.57;17.47
42691;BME280;28306;55.744;37.578;2023-03-20T05:54:49;100208.22;;;24.57;17.38
42691;BME280;28306;55.744;37.578;2023-03-20T05:57:41;100207.97;;;24.59;17.34
42691;BME280;28306;55.744;37.578;2023-03-20T06:00:36;100210.44;;;24.60;17.16
42691;BME280;28306;55.744;37.578;2023-03-20T06:03:20;100210.44;;;24.60;17.52
42691;BME280;28306;55.744;37.578;2023-03-20T06:05:58;100214.81;;;24.61;17.13
42691;BME280;28306;55.744;37.578;2023-03-20T06:08:23;100209.38;;;24.61;17.20
42691;BME280;28306;55.744;37.578;2023-03-20T06:10:49;100212.91;;;24.62;17.26
42691;BME280;28306;55.744;37.578;2023-03-20T06:13:14;100218.34;;;24.62;17.18
42691;BME280;28306;55.744;37.578;2023-03-20T06:15:40;100212.66;;;24.63;17.16
42691;BME280;28306;55.744;37.578;2023-03-20T06:18:13;100211.84;;;24.63;17.20
42691;BME280;28306;55.744;37.578;2023-03-20T06:20:39;100217.03;;;24.64;16.91
42691;BME280;28306;55.744;37.578;2023-03-20T06:23:04;100210.53;;;24.66;16.76
42691;BME280;28306;55.744;37.578;2023-03-20T06:25:30;100205.09;;;24.66;16.69
42691;BME280;28306;55.744;37.578;2023-03-20T06:27:56;100209.44;;;24.67;16.77
42691;BME280;28306;55.744;37.578;2023-03-20T06:30:22;100204.00;;;24.67;16.89
42691;BME280;28306;55.744;37.578;2023-03-20T06:32:48;100204.84;;;24.67;17.04
42691;BME280;28306;55.744;37.578;2023-03-20T06:35:15;100199.97;;;24.69;16.92
42691;BME280;28306;55.744;37.578;2023-03-20T06:37:45;100201.59;;;24.70;17.11
42691;BME280;28306;55.744;37.578;2023-03-20T06:40:15;100199.47;;;24.72;16.94
42691;BME280;28306;55.744;37.578;2023-03-20T06:42:40;100197.56;;;24.73;16.89
42691;BME280;28306;55.744;37.578;2023-03-20T06:45:08;100188.06;;;24.75;17.03
42691;BME280;28306;55.744;37.578;2023-03-20T06:47:58;100189.44;;;24.78;16.84
42691;BME280;28306;55.744;37.578;2023-03-20T06:50:23;100191.09;;;24.79;16.77
42691;BME280;28306;55.744;37.578;2023-03-20T06:52:49;100192.50;;;24.81;16.81
42691;BME280;28306;55.744;37.578;2023-03-20T06:55:31;100197.97;;;24.81;17.09
42691;BME280;28306;55.744;37.578;2023-03-20T06:57:57;100192.25;;;24.83;16.95
42691;BME280;28306;55.744;37.578;2023-03-20T07:00:22;100190.09;;;24.85;16.82
42691;BME280;28306;55.744;37.578;2023-03-20T07:02:48;100181.69;;;24.87;16.77
42691;BME280;28306;55.744;37.578;2023-03-20T07:05:16;100185.81;;;24.89;16.98
42691;BME280;28306;55.744;37.578;2023-03-20T07:07:42;100179.28;;;24.90;16.75
42691;BME280;28306;55.744;37.578;2023-03-20T07:10:08;100175.50;;;24.91;17.14
42691;BME280;28306;55.744;37.578;2023-03-20T07:12:34;100170.03;;;24.91;16.88
42691;BME280;28306;55.744;37.578;2023-03-20T07:15:01;100168.72;;;24.94;17.09
42691;BME280;28306;55.744;37.578;2023-03-20T07:17:27;100169.53;;;24.94;17.36
42691;BME280;28306;55.744;37.578;2023-03-20T07:19:52;100174.72;;;24.96;17.22
42691;BME280;28306;55.744;37.578;2023-03-20T07:22:22;100163.03;;;24.95;17.10
42691;BME280;28306;55.744;37.578;2023-03-20T07:24:49;100169.28;;;24.96;17.51
42691;BME280;28306;55.744;37.578;2023-03-20T07:27:15;100170.09;;;24.96;17.51
42691;BME280;28306;55.744;37.578;2023-03-20T07:29:42;100162.78;;;24.97;17.45
42691;BME280;28306;55.744;37.578;2023-03-20T07:32:11;100169.03;;;24.97;17.38
42691;BME280;28306;55.744;37.578;2023-03-20T07:34:45;100168.22;;;24.97;17.42
42691;BME280;28306;55.744;37.578;2023-03-20T07:37:11;100160.88;;;24.97;17.31
42691;BME280;28306;55.744;37.578;2023-03-20T07:39:38;100152.69;;;24.97;17.48
42691;BME280;28306;55.744;37.578;2023-03-20T07:42:25;100152.44;;;24.99;17.41
42691;BME280;28306;55.744;37.578;2023-03-20T07:44:57;100153.25;;;24.99;17.46
42691;BME280;28306;55.744;37.578;2023-03-20T07:47:22;100152.44;;;24.99;17.26
42691;BME280;28306;55.744;37.578;2023-03-20T07:49:48;100157.09;;;24.98;17.33
42691;BME280;28306;55.744;37.578;2023-03-20T07:52:13;100151.63;;;24.98;17.39
42691;BME280;28306;55.744;37.578;2023-03-20T07:54:39;100157.88;;;24.99;17.02
42691;BME280;28306;55.744;37.578;2023-03-20T07:57:04;100153.00;;;25.01;17.15
42691;BME280;28306;55.744;37.578;2023-03-20T07:59:30;100155.72;;;25.01;17.01
42691;BME280;28306;55.744;37.578;2023-03-20T08:01:56;100149.22;;;25.02;16.87
42691;BME280;28306;55.744;37.578;2023-03-20T08:04:21;100144.84;;;25.01;16.90
42691;BME280;28306;55.744;37.578;2023-03-20T08:06:47;100149.22;;;25.02;16.87
42691;BME280;28306;55.744;37.578;2023-03-20T08:09:13;100139.13;;;25.03;17.01
42691;BME280;28306;55.744;37.578;2023-03-20T08:11:38;100137.81;;;25.05;16.78
42691;BME280;28306;55.744;37.578;2023-03-20T08:14:04;100138.38;;;25.07;16.80
42691;BME280;28306;55.744;37.578;2023-03-20T08:16:29;100138.38;;;25.07;16.79
42691;BME280;28306;55.744;37.578;2023-03-20T08:18:54;100140.03;;;25.08;16.88
42691;BME280;28306;55.744;37.578;2023-03-20T08:21:26;100140.84;;;25.09;16.67
42691;BME280;28306;55.744;37.578;2023-03-20T08:23:51;100135.41;;;25.09;16.74
42691;BME280;28306;55.744;37.578;2023-03-20T08:26:17;100135.97;;;25.11;16.87
42691;BME280;28306;55.744;37.578;2023-03-20T08:28:42;100138.69;;;25.11;16.81
42691;BME280;28306;55.744;37.578;2023-03-20T08:31:08;100131.09;;;25.13;16.89
42691;BME280;28306;55.744;37.578;2023-03-20T08:33:33;100121.03;;;25.13;16.56
42691;BME280;28306;55.744;37.578;2023-03-20T08:35:59;100118.03;;;25.15;16.85
42691;BME280;28306;55.744;37.578;2023-03-20T08:38:24;100119.44;;;25.17;17.18
42691;BME280;28306;55.744;37.578;2023-03-20T08:40:50;100123.28;;;25.22;16.88
42691;BME280;28306;55.744;37.578;2023-03-20T08:43:16;100121.16;;;25.24;16.86
42691;BME280;28306;55.744;37.578;2023-03-20T08:45:41;100117.91;;;25.27;17.17
42691;BME280;28306;55.744;37.578;2023-03-20T08:48:07;100116.00;;;25.27;16.93
42691;BME280;28306;55.744;37.578;2023-03-20T08:50:33;100114.09;;;25.28;16.89
42691;BME280;28306;55.744;37.578;2023-03-20T08:52:58;100108.41;;;25.29;17.11
42691;BME280;28306;55.744;37.578;2023-03-20T08:55:25;100111.72;;;25.31;17.03
42691;BME280;28306;55.744;37.578;2023-03-20T08:57:50;100109.25;;;25.30;17.03
42691;BME280;28306;55.744;37.578;2023-03-20T09:00:17;100103.81;;;25.30;16.92
42691;BME280;28306;55.744;37.578;2023-03-20T09:02:44;100104.63;;;25.30;16.89
42691;BME280;28306;55.744;37.578;2023-03-20T09:05:10;100100.84;;;25.31;16.74
42691;BME280;28306;55.744;37.578;2023-03-20T09:07:35;100091.00;;;25.30;16.89
42691;BME280;28306;55.744;37.578;2023-03-20T09:10:01;100099.44;;;25.29;16.85
42691;BME280;28306;55.744;37.578;2023-03-20T09:12:27;100102.38;;;25.27;16.97
42691;BME280;28306;55.744;37.578;2023-03-20T09:14:52;100106.78;;;25.28;16.93
42691;BME280;28306;55.744;37.578;2023-03-20T09:17:17;100102.16;;;25.29;16.92
42691;BME280;28306;55.744;37.578;2023-03-20T09:19:43;100099.44;;;25.29;16.95
42691;BME280;28306;55.744;37.578;2023-03-20T09:22:12;100107.59;;;25.29;17.11
42691;BME280;28306;55.744;37.578;2023-03-20T09:24:38;100102.16;;;25.29;17.15
42691;BME280;28306;55.744;37.578;2023-03-20T09:27:03;100093.19;;;25.28;17.13
42691;BME280;28306;55.744;37.578;2023-03-20T09:29:29;100094.81;;;25.29;17.57
42691;BME280;28306;55.744;37.578;2023-03-20T09:31:55;100092.91;;;25.30;17.43
42691;BME280;28306;55.744;37.578;2023-03-20T09:34:20;100085.56;;;25.30;17.25
42691;BME280;28306;55.744;37.578;2023-03-20T09:36:46;100085.59;;;25.08;17.07
42691;BME280;28306;55.744;37.578;2023-03-20T09:39:11;100089.66;;;24.61;17.33
42691;BME280;28306;55.744;37.578;2023-03-20T09:41:37;100086.38;;;24.20;17.36
42691;BME280;28306;55.744;37.578;2023-03-20T09:46:38;100080.13;;;23.69;16.93
42691;BME280;28306;55.744;37.578;2023-03-20T09:49:12;100074.38;;;23.19;17.13
42691;BME280;28306;55.744;37.578;2023-03-20T09:51:59;100069.00;;;22.96;16.83
42691;BME280;28306;55.744;37.578;2023-03-20T09:54:42;100062.41;;;22.63;16.96
42691;BME280;28306;55.744;37.578;2023-03-20T10:00:23;100061.16;;;22.42;16.91
42691;BME280;28306;55.744;37.578;2023-03-20T10:07:43;100046.19;;;22.27;16.46
42691;BME280;28306;55.744;37.578;2023-03-20T10:10:12;100050.69;;;22.34;16.53
42691;BME280;28306;55.744;37.578;2023-03-20T10:12:43;100042.75;;;22.44;16.14
42691;BME280;28306;55.744;37.578;2023-03-20T10:15:17;100044.53;;;22.14;15.94
42691;BME280;28306;55.744;37.578;2023-03-20T10:18:27;100040.53;;;21.82;16.57
42691;BME280;28306;55.744;37.578;2023-03-20T10:20:56;100038.16;;;21.50;15.71
42691;BME280;28306;55.744;37.578;2023-03-20T10:26:10;100028.34;;;20.95;15.84
42691;BME280;28306;55.744;37.578;2023-03-20T10:28:44;100025.22;;;20.79;16.29
42691;BME280;28306;55.744;37.578;2023-03-20T10:31:24;100028.47;;;20.69;15.92
42691;BME280;28306;55.744;37.578;2023-03-20T10:36:22;100021.09;;;20.58;15.87
42691;BME280;28306;55.744;37.578;2023-03-20T10:41:16;100023.22;;;20.38;16.71
42691;BME280;28306;55.744;37.578;2023-03-20T10:43:43;100019.75;;;20.30;16.05
42691;BME280;28306;55.744;37.578;2023-03-20T10:46:10;100011.19;;;20.15;16.31
42691;BME280;28306;55.744;37.578;2023-03-20T10:48:39;100004.88;;;20.03;16.32
42691;BME280;28306;55.744;37.578;2023-03-20T10:51:08;100009.09;;;19.98;16.72
42691;BME280;28306;55.744;37.578;2023-03-20T10:56:11;100002.34;;;19.89;16.93
42691;BME280;28306;55.744;37.578;2023-03-20T10:58:39;99995.94;;;19.84;17.50
42691;BME280;28306;55.744;37.578;2023-03-20T11:01:05;99999.19;;;19.92;17.36
42691;BME280;28306;55.744;37.578;2023-03-20T11:03:30;99996.78;;;20.03;17.10
42691;BME280;28306;55.744;37.578;2023-03-20T11:08:23;99991.47;;;20.33;17.35
42691;BME280;28306;55.744;37.578;2023-03-20T11:10:59;99988.81;;;20.45;17.39
42691;BME280;28306;55.744;37.578;2023-03-20T11:13:46;99986.19;;;20.57;17.70
42691;BME280;28306;55.744;37.578;2023-03-20T11:18:48;99981.16;;;20.60;17.35
42691;BME280;28306;55.744;37.578;2023-03-20T11:21:17;99987.56;;;20.47;17.48
42691;BME280;28306;55.744;37.578;2023-03-20T11:23:43;99982.16;;;20.47;17.74
42691;BME280;28306;55.744;37.578;2023-03-20T11:26:12;99981.50;;;20.64;17.52
42691;BME280;28306;55.744;37.578;2023-03-20T11:28:54;99980.69;;;20.63;17.71
42691;BME280;28306;55.744;37.578;2023-03-20T11:31:38;99977.34;;;20.68;18.15
42691;BME280;28306;55.744;37.578;2023-03-20T11:36:39;99971.09;;;20.67;18.01
42691;BME280;28306;55.744;37.578;2023-03-20T11:41:30;99962.00;;;20.62;17.54
42691;BME280;28306;55.744;37.578;2023-03-20T11:43:56;99954.59;;;20.39;17.61
42691;BME280;28306;55.744;37.578;2023-03-20T11:46:22;99952.75;;;20.21;18.13
42691;BME280;28306;55.744;37.578;2023-03-20T11:49:00;99950.56;;;20.11;18.02
42691;BME280;28306;55.744;37.578;2023-03-20T11:51:26;99948.16;;;20.03;18.17
42691;BME280;28306;55.744;37.578;2023-03-20T11:56:52;99934.84;;;20.08;18.75
42691;BME280;28306;55.744;37.578;2023-03-20T11:59:12;99937.13;;;20.23;18.27
42691;BME280;28306;55.744;37.578;2023-03-20T12:01:39;99928.00;;;20.24;17.94
42691;BME280;28306;55.744;37.578;2023-03-20T12:04:10;99928.03;;;20.17;18.20
42691;BME280;28306;55.744;37.578;2023-03-20T12:06:54;99930.03;;;20.10;18.25
42691;BME280;28306;55.744;37.578;2023-03-20T12:09:26;99926.19;;;19.99;18.42
42691;BME280;28306;55.744;37.578;2023-03-20T12:17:19;99916.75;;;19.90;18.79
42691;BME280;28306;55.744;37.578;2023-03-20T12:19:49;99907.88;;;19.83;18.60
42691;BME280;28306;55.744;37.578;2023-03-20T12:22:20;99905.19;;;19.83;19.10
42691;BME280;28306;55.744;37.578;2023-03-20T12:24:58;99902.03;;;19.86;18.78
42691;BME280;28306;55.744;37.578;2023-03-20T12:30:38;99895.91;;;19.97;18.60
42691;BME280;28306;55.744;37.578;2023-03-20T12:35:16;99888.44;;;20.11;18.66
42691;BME280;28306;55.744;37.578;2023-03-20T12:37:43;99883.25;;;20.09;18.42
42691;BME280;28306;55.744;37.578;2023-03-20T12:40:14;99888.06;;;20.07;18.82
42691;BME280;28306;55.744;37.578;2023-03-20T12:45:14;99885.00;;;20.04;18.70
42691;BME280;28306;55.744;37.578;2023-03-20T12:55:56;99876.00;;;20.40;19.12
42691;BME280;28306;55.744;37.578;2023-03-20T13:03:27;99867.19;;;20.45;18.39
42691;BME280;28306;55.744;37.578;2023-03-20T13:08:29;99853.91;;;20.31;18.41
42691;BME280;28306;55.744;37.578;2023-03-20T13:11:12;99853.38;;;20.23;18.87
42691;BME280;28306;55.744;37.578;2023-03-20T13:13:48;99857.06;;;20.28;18.52
42691;BME280;28306;55.744;37.578;2023-03-20T13:21:33;99840.69;;;20.53;18.72
42691;BME280;28306;55.744;37.578;2023-03-20T13:29:17;99843.97;;;20.56;18.27
42691;BME280;28306;55.744;37.578;2023-03-20T13:37:07;99822.19;;;20.81;18.26
42691;BME280;28306;55.744;37.578;2023-03-20T13:39:39;99824.41;;;20.84;18.40
42691;BME280;28306;55.744;37.578;2023-03-20T13:42:10;99813.25;;;21.04;17.99
42691;BME280;28306;55.744;37.578;2023-03-20T13:44:37;99819.00;;;21.08;18.35
42691;BME280;28306;55.744;37.578;2023-03-20T13:47:22;99816.31;;;21.08;18.16
42691;BME280;28306;55.744;37.578;2023-03-20T13:52:41;99817.38;;;21.06;18.20
42691;BME280;28306;55.744;37.578;2023-03-20T13:57:55;99807.38;;;20.95;18.44
42691;BME280;28306;55.744;37.578;2023-03-20T14:00:24;99808.31;;;21.01;18.28
42691;BME280;28306;55.744;37.578;2023-03-20T14:05:28;99796.09;;;21.10;18.30
42691;BME280;28306;55.744;37.578;2023-03-20T14:07:55;99793.16;;;21.12;17.97
42691;BME280;28306;55.744;37.578;2023-03-20T14:12:47;99789.97;;;21.03;18.20
42691;BME280;28306;55.744;37.578;2023-03-20T14:15:13;99783.16;;;21.00;18.08
42691;BME280;28306;55.744;37.578;2023-03-20T14:17:42;99787.16;;;20.98;18.10
42691;BME280;28306;55.744;37.578;2023-03-20T14:20:10;99780.78;;;20.92;18.27
42691;BME280;28306;55.744;37.578;2023-03-20T14:22:37;99782.44;;;20.93;18.51
42691;BME280;28306;55.744;37.578;2023-03-20T14:25:05;99784.34;;;20.93;18.53
42691;BME280;28306;55.744;37.578;2023-03-20T14:27:36;99777.88;;;20.82;18.56
42691;BME280;28306;55.744;37.578;2023-03-20T14:32:59;99771.50;;;20.64;18.76
42691;BME280;28306;55.744;37.578;2023-03-20T14:35:26;99775.44;;;20.50;18.91
42691;BME280;28306;55.744;37.578;2023-03-20T14:40:27;99770.56;;;20.82;19.56
42691;BME280;28306;55.744;37.578;2023-03-20T14:50:51;99767.72;;;22.68;18.87
42691;BME280;28306;55.744;37.578;2023-03-20T14:53:21;99767.09;;;23.00;18.72
42691;BME280;28306;55.744;37.578;2023-03-20T15:01:01;99773.91;;;23.64;18.56
42691;BME280;28306;55.744;37.578;2023-03-20T15:03:27;99769.47;;;23.80;18.47
42691;BME280;28306;55.744;37.578;2023-03-20T15:06:01;99766.41;;;23.93;18.57
42691;BME280;28306;55.744;37.578;2023-03-20T15:08:30;99769.75;;;24.06;18.59
42691;BME280;28306;55.744;37.578;2023-03-20T15:10:57;99766.91;;;24.18;18.27
42691;BME280;28306;55.744;37.578;2023-03-20T15:13:24;99768.88;;;24.27;18.35
42691;BME280;28306;55.744;37.578;2023-03-20T15:15:51;99769.25;;;24.36;18.19
42691;BME280;28306;55.744;37.578;2023-03-20T15:18:19;99762.50;;;24.44;18.29
42691;BME280;28306;55.744;37.578;2023-03-20T15:20:45;99758.75;;;24.50;18.22
42691;BME280;28306;55.744;37.578;2023-03-20T15:23:12;99755.00;;;24.56;18.24
42691;BME280;28306;55.744;37.578;2023-03-20T15:25:41;99763.22;;;24.61;18.18
42691;BME280;28306;55.744;37.578;2023-03-20T15:28:11;99758.06;;;24.65;18.18
42691;BME280;28306;55.744;37.578;2023-03-20T15:30:38;99765.44;;;24.70;17.95